Time;durP1;ratioP1;P1;durP2;ratioP2;P2;SDS_P1;SDS_P2;PMS_P1;PMS_P2;Temp;Humidity;BMP_temperature;BMP_pressure;BME280_temperature;BME280_humidity;BME280_pressure;Samples;Min_cycle;Max_cycle;Signal;HPM_P1;HPM_P2
2021/01/20 00:02:20;;;;;;;9.93;6.43;;;;;;;-4.42;100.00;96972.66;4993406;28;20230;-81
2021/01/20 00:04:53;;;;;;;6.10;4.70;;;;;;;-4.48;100.00;96975.41;4993400;28;20235;-81
2021/01/20 00:07:20;;;;;;;5.30;4.10;;;;;;;-4.32;100.00;96969.72;4993098;28;20242;-80
2021/01/20 00:09:53;;;;;;;4.77;3.93;;;;;;;-4.04;100.00;96967.97;4993307;28;20283;-80
2021/01/20 00:12:20;;;;;;;4.93;4.37;;;;;;;-4.36;100.00;96968.16;4992718;28;20287;-80
2021/01/20 00:14:49;;;;;;;15.57;10.67;;;;;;;-4.57;100.00;96976.56;4993282;28;20200;-81
2021/01/20 00:17:23;;;;;;;33.50;22.20;;;;;;;-4.70;100.00;96981.22;4993026;28;20461;-80
2021/01/20 00:19:50;;;;;;;49.53;32.20;;;;;;;-4.49;100.00;96984.00;4992959;28;20196;-81
2021/01/20 00:22:17;;;;;;;14.63;12.20;;;;;;;-4.39;100.00;96982.81;4993227;28;20286;-80
2021/01/20 00:24:44;;;;;;;11.57;7.83;;;;;;;-4.23;100.00;96973.72;4992840;28;20451;-80
2021/01/20 00:27:11;;;;;;;14.80;10.10;;;;;;;-4.15;100.00;96973.47;4992626;28;20976;-80
2021/01/20 00:29:38;;;;;;;11.13;8.23;;;;;;;-4.36;100.00;96969.91;4993326;28;20451;-81
2021/01/20 00:32:05;;;;;;;9.43;7.87;;;;;;;-4.43;100.00;96970.97;4992789;28;20452;-81
2021/01/20 00:34:31;;;;;;;9.60;8.27;;;;;;;-4.45;100.00;96960.75;4993087;28;20489;-81
2021/01/20 00:36:58;;;;;;;13.20;9.43;;;;;;;-4.35;100.00;96967.25;4992246;28;20239;-80
2021/01/20 00:39:26;;;;;;;5.33;4.73;;;;;;;-4.26;100.00;96965.28;4992936;28;20436;-80
2021/01/20 00:41:53;;;;;;;5.50;4.10;;;;;;;-4.39;100.00;96955.44;4992319;28;20260;-81
2021/01/20 00:44:19;;;;;;;4.63;3.60;;;;;;;-4.12;100.00;96947.66;4992901;28;20254;-81
2021/01/20 00:46:46;;;;;;;4.37;3.27;;;;;;;-4.27;100.00;96961.88;4991687;28;20246;-80
2021/01/20 00:49:13;;;;;;;5.13;3.70;;;;;;;-4.62;100.00;96963.84;4992612;28;20204;-80
2021/01/20 00:51:40;;;;;;;19.57;12.80;;;;;;;-4.50;100.00;96956.66;4992278;28;20193;-80
2021/01/20 00:54:10;;;;;;;8.70;6.60;;;;;;;-4.66;100.00;96951.19;4992606;28;20649;-81
2021/01/20 00:56:38;;;;;;;8.23;5.47;;;;;;;-4.43;100.00;96953.03;4992348;28;20288;-80
2021/01/20 00:59:05;;;;;;;6.17;4.50;;;;;;;-4.30;100.00;96949.13;4992717;28;20287;-80
2021/01/20 01:01:32;;;;;;;4.20;3.47;;;;;;;-4.42;100.00;96949.56;4992292;28;20519;-80
2021/01/20 01:03:58;;;;;;;4.23;3.57;;;;;;;-4.58;100.00;96959.47;4992475;28;20216;-80
2021/01/20 01:06:25;;;;;;;3.80;3.37;;;;;;;-4.24;100.00;96955.81;4992216;28;20439;-81
2021/01/20 01:08:52;;;;;;;5.53;3.23;;;;;;;-4.08;100.00;96956.97;4992523;28;20454;-80
2021/01/20 01:11:19;;;;;;;2.57;2.33;;;;;;;-4.28;100.00;96957.63;4992231;28;20451;-80
2021/01/20 01:13:53;;;;;;;2.60;2.13;;;;;;;-4.47;100.00;96961.69;4992215;28;20447;-80
2021/01/20 01:16:22;;;;;;;2.50;2.30;;;;;;;-4.47;100.00;96966.81;4992210;28;20493;-80
2021/01/20 01:18:49;;;;;;;2.40;2.20;;;;;;;-4.53;100.00;96961.91;4992365;28;20447;-80
2021/01/20 01:21:22;;;;;;;2.10;2.00;;;;;;;-4.37;100.00;96963.91;4992022;28;20238;-80
2021/01/20 01:23:49;;;;;;;3.97;2.80;;;;;;;-4.33;100.00;96969.75;4992056;28;20440;-80
2021/01/20 01:26:16;;;;;;;2.17;2.07;;;;;;;-4.46;100.00;96961.66;4992318;28;20530;-80
2021/01/20 01:28:43;;;;;;;2.70;2.50;;;;;;;-4.41;100.00;96946.94;4992525;28;20196;-80
2021/01/20 01:31:13;;;;;;;2.30;2.10;;;;;;;-4.42;100.00;96949.56;4991967;28;20451;-81
2021/01/20 01:33:40;;;;;;;3.10;2.37;;;;;;;-4.33;100.00;96955.22;4992044;28;20200;-80
2021/01/20 01:36:07;;;;;;;2.93;2.50;;;;;;;-4.34;100.00;96962.97;4992089;28;20566;-80
2021/01/20 01:38:34;;;;;;;3.13;2.70;;;;;;;-4.19;100.00;96952.22;4990937;28;20324;-80
2021/01/20 01:41:01;;;;;;;3.83;3.37;;;;;;;-4.22;100.00;96956.59;4992021;28;20212;-80
2021/01/20 01:43:28;;;;;;;4.60;3.33;;;;;;;-4.49;100.00;96960.91;4992401;28;20517;-80
2021/01/20 01:45:55;;;;;;;5.97;3.33;;;;;;;-4.51;100.00;96966.06;4992003;28;20868;-80
2021/01/20 01:48:23;;;;;;;2.50;2.30;;;;;;;-4.51;100.00;96970.38;4991870;28;20683;-80
2021/01/20 01:50:53;;;;;;;3.37;2.57;;;;;;;-4.55;100.00;96970.47;4991997;28;20443;-80
2021/01/20 01:53:20;;;;;;;4.53;3.17;;;;;;;-4.64;100.00;96970.78;4991881;28;20259;-81
2021/01/20 01:55:53;;;;;;;2.30;2.10;;;;;;;-4.72;100.00;96977.88;4992210;28;20590;-80
2021/01/20 01:58:21;;;;;;;2.80;2.60;;;;;;;-4.50;100.00;96972.91;4991834;28;20460;-80
2021/01/20 02:00:50;;;;;;;3.67;2.57;;;;;;;-4.33;100.00;96980.91;4991693;28;20482;-80
2021/01/20 02:03:19;;;;;;;2.30;2.10;;;;;;;-4.49;100.00;96986.56;4991878;28;20673;-81
2021/01/20 02:05:47;;;;;;;4.30;2.77;;;;;;;-4.50;100.00;96979.75;4991877;28;20448;-81
2021/01/20 02:08:15;;;;;;;10.37;6.70;;;;;;;-4.60;100.00;96977.50;4991853;28;20537;-80
2021/01/20 02:10:53;;;;;;;3.23;2.90;;;;;;;-4.75;100.00;96988.22;4991419;28;20455;-80
2021/01/20 02:13:30;;;;;;;4.70;2.10;;;;;;;-4.83;100.00;96977.38;4992110;28;20475;-81
2021/01/20 02:16:07;;;;;;;2.67;2.23;;;;;;;-4.57;100.00;96971.44;4991855;28;20442;-81
2021/01/20 02:18:36;;;;;;;2.73;2.30;;;;;;;-4.47;100.00;96966.81;4991756;28;20442;-80
2021/01/20 02:21:47;;;;;;;3.00;2.47;;;;;;;-4.40;100.00;96968.28;4991850;28;20451;-80
2021/01/20 02:24:18;;;;;;;3.30;2.47;;;;;;;-4.24;100.00;96972.03;4991885;28;20874;-80
2021/01/20 02:26:57;;;;;;;6.53;3.20;;;;;;;-4.11;100.00;96970.75;4992783;28;20193;-81
2021/01/20 02:29:35;;;;;;;2.50;2.30;;;;;;;-4.19;100.00;96961.59;4995332;28;20215;-80
2021/01/20 02:32:07;;;;;;;3.27;2.43;;;;;;;-4.19;100.00;96962.47;4994984;28;20478;-80
2021/01/20 02:34:39;;;;;;;2.90;2.23;;;;;;;-3.97;100.00;96962.56;4994796;28;20195;-81
2021/01/20 02:37:07;;;;;;;3.23;2.30;;;;;;;-3.95;100.00;96957.38;4994395;28;20454;-80
2021/01/20 02:39:35;;;;;;;7.10;4.73;;;;;;;-3.91;100.00;96966.66;4994922;28;20947;-80
2021/01/20 02:42:03;;;;;;;5.57;5.03;;;;;;;-4.26;100.00;96960.13;4994644;28;20550;-82
2021/01/20 02:44:30;;;;;;;7.93;4.83;;;;;;;-4.44;100.00;96966.72;4995008;28;20201;-81
2021/01/20 02:46:57;;;;;;;7.97;5.40;;;;;;;-4.23;100.00;96960.88;4994549;28;20447;-80
2021/01/20 02:49:25;;;;;;;7.00;4.77;;;;;;;-4.23;100.00;96957.47;4994834;28;20204;-81
2021/01/20 02:51:57;;;;;;;7.80;5.50;;;;;;;-4.28;100.00;96967.06;4994750;28;20196;-80
2021/01/20 02:54:25;;;;;;;6.70;5.23;;;;;;;-4.16;100.00;96962.34;4994724;28;20432;-80
2021/01/20 02:56:54;;;;;;;7.43;4.50;;;;;;;-4.45;100.00;96973.59;4994331;28;20464;-81
2021/01/20 02:59:23;;;;;;;6.40;4.47;;;;;;;-4.65;100.00;96968.25;4995052;28;20458;-80
2021/01/20 03:01:53;;;;;;;3.57;3.20;;;;;;;-4.75;100.00;96970.25;4994825;28;20490;-80
2021/01/20 03:04:21;;;;;;;2.80;2.57;;;;;;;-4.84;100.00;96973.97;4994821;28;20806;-80
2021/01/20 03:06:51;;;;;;;3.40;2.90;;;;;;;-4.89;100.00;96963.00;4994590;28;20439;-80
2021/01/20 03:09:17;;;;;;;4.87;4.37;;;;;;;-4.89;100.00;96967.28;4994616;28;20455;-80
2021/01/20 03:11:48;;;;;;;13.77;8.77;;;;;;;-4.97;100.00;96970.09;4994429;28;20684;-80
2021/01/20 03:14:16;;;;;;;11.30;8.57;;;;;;;-4.98;100.00;96959.91;4994150;28;20443;-80
2021/01/20 03:16:51;;;;;;;8.07;5.80;;;;;;;-5.02;100.00;96954.03;4993806;28;20455;-81
2021/01/20 03:19:18;;;;;;;155.80;75.70;;;;;;;-4.99;100.00;96953.06;4993970;28;20442;-81
2021/01/20 03:21:58;;;;;;;132.77;68.30;;;;;;;-4.94;100.00;96940.97;4994263;28;20669;-80
2021/01/20 03:24:28;;;;;;;105.33;56.00;;;;;;;-4.86;100.00;96928.75;4994565;28;20835;-80
2021/01/20 03:26:55;;;;;;;124.20;57.27;;;;;;;-4.70;100.00;96932.50;4993976;28;20827;-80
2021/01/20 03:29:22;;;;;;;68.97;34.60;;;;;;;-4.50;100.00;96931.00;4994202;28;20951;-80
2021/01/20 03:31:52;;;;;;;29.40;18.27;;;;;;;-4.36;100.00;96932.25;4993612;28;20534;-80
2021/01/20 03:34:18;;;;;;;15.40;10.43;;;;;;;-4.34;100.00;96930.44;4994261;28;20264;-81
2021/01/20 03:36:45;;;;;;;6.17;5.43;;;;;;;-4.34;100.00;96937.31;4993466;28;20447;-80
2021/01/20 03:39:13;;;;;;;5.27;3.80;;;;;;;-4.31;100.00;96942.34;4993631;28;20562;-80
2021/01/20 03:41:49;;;;;;;4.33;3.80;;;;;;;-4.34;100.00;96947.56;4993770;28;20491;-80
2021/01/20 03:44:19;;;;;;;6.33;3.80;;;;;;;-4.32;100.00;96941.50;4993419;28;20204;-81
2021/01/20 03:46:52;;;;;;;3.87;3.37;;;;;;;-4.60;100.00;96951.84;4993648;28;20529;-80
2021/01/20 03:49:25;;;;;;;3.27;2.57;;;;;;;-4.48;100.00;96945.47;4993812;28;20455;-80
2021/01/20 03:51:52;;;;;;;4.30;3.90;;;;;;;-4.56;100.00;96947.44;4993422;28;20975;-80
2021/01/20 03:54:23;;;;;;;187.17;93.63;;;;;;;-5.15;100.00;96955.28;4993919;28;20464;-80
2021/01/20 03:56:53;;;;;;;19.80;10.70;;;;;;;-5.07;100.00;96961.00;4993357;28;20482;-80
2021/01/20 03:59:22;;;;;;;6.57;5.27;;;;;;;-4.61;100.00;96964.69;4993305;28;20483;-80
2021/01/20 04:01:49;;;;;;;4.90;4.23;;;;;;;-4.63;100.00;96972.44;4993205;28;20612;-80
2021/01/20 04:04:19;;;;;;;5.67;4.13;;;;;;;-4.55;100.00;96978.16;4993428;28;20487;-80
2021/01/20 04:06:49;;;;;;;4.83;4.33;;;;;;;-4.49;100.00;96978.88;4992973;28;20959;-80
2021/01/20 04:09:24;;;;;;;6.33;5.63;;;;;;;-4.53;100.00;96980.69;4993303;28;20454;-80
2021/01/20 04:11:51;;;;;;;4.50;4.10;;;;;;;-4.55;100.00;96975.59;4993128;28;20455;-80
2021/01/20 04:14:24;;;;;;;5.67;3.47;;;;;;;-4.57;100.00;96966.31;4993319;28;20447;-80
2021/01/20 04:16:51;;;;;;;5.57;3.57;;;;;;;-4.69;100.00;96971.81;4993404;28;20447;-80
2021/01/20 04:19:18;;;;;;;4.03;3.40;;;;;;;-4.71;100.00;96982.13;4992985;28;20448;-80
2021/01/20 04:21:53;;;;;;;3.83;2.70;;;;;;;-4.73;100.00;96988.19;4992919;28;20483;-81
2021/01/20 04:27:56;;;;;;;12.07;7.20;;;;;;;-4.84;100.00;96991.09;4981620;28;20462;-80
2021/01/20 04:30:24;;;;;;;10.23;7.03;;;;;;;-4.82;100.00;96984.16;4993053;28;20204;-81
2021/01/20 04:32:50;;;;;;;11.00;6.97;;;;;;;-4.78;100.00;96988.31;4992800;28;20542;-81
2021/01/20 04:35:17;;;;;;;7.60;6.37;;;;;;;-4.47;100.00;96982.22;4993341;28;20204;-80
2021/01/20 04:37:44;;;;;;;7.93;6.13;;;;;;;-4.46;100.00;96981.34;4992030;28;21036;-81
2021/01/20 04:40:15;;;;;;;8.77;6.97;;;;;;;-4.36;100.00;96990.44;4992788;28;21002;-81
2021/01/20 04:42:44;;;;;;;11.23;7.17;;;;;;;-4.45;100.00;96988.97;4992385;28;20487;-81
2021/01/20 04:45:11;;;;;;;8.67;6.47;;;;;;;-4.57;100.00;96987.66;4992490;28;20196;-82
2021/01/20 04:47:40;;;;;;;78.70;45.70;;;;;;;-4.78;100.00;96994.31;4992717;28;20623;-83
2021/01/20 04:50:10;;;;;;;45.47;30.60;;;;;;;-4.82;100.00;96986.72;4992017;28;20512;-81
2021/01/20 04:52:38;;;;;;;27.00;17.47;;;;;;;-5.03;100.00;96991.63;4992476;28;20439;-82
2021/01/20 04:55:09;;;;;;;18.00;11.63;;;;;;;-4.74;100.00;96989.91;4992561;28;20435;-81
2021/01/20 04:57:38;;;;;;;36.10;21.83;;;;;;;-4.74;100.00;96989.91;4986350;28;20457;-81
2021/01/20 05:00:06;;;;;;;38.40;23.57;;;;;;;-4.91;100.00;96987.03;4989646;28;20512;-81
2021/01/20 05:02:34;;;;;;;105.87;46.90;;;;;;;-4.89;100.00;96990.38;4990488;28;20804;-81
2021/01/20 05:05:01;;;;;;;49.53;25.17;;;;;;;-4.96;100.00;96987.16;4990487;28;20518;-80
2021/01/20 05:07:28;;;;;;;33.83;17.07;;;;;;;-4.91;100.00;96987.03;4990510;28;20439;-80
2021/01/20 05:09:55;;;;;;;33.73;18.70;;;;;;;-4.75;100.00;96988.22;4992447;28;20447;-81
2021/01/20 05:12:37;;;;;;;37.30;19.73;;;;;;;-4.83;100.00;96983.31;4992201;28;20454;-81
2021/01/20 05:15:06;;;;;;;26.17;15.77;;;;;;;-4.89;100.00;96982.69;4991569;28;20856;-81
2021/01/20 05:17:33;;;;;;;40.50;26.60;;;;;;;-4.78;100.00;96996.00;4992175;28;20454;-81
2021/01/20 05:20:00;;;;;;;46.20;28.27;;;;;;;-4.67;100.00;97004.22;4992760;28;20447;-81
2021/01/20 05:22:29;;;;;;;51.13;26.53;;;;;;;-4.64;100.00;97001.56;4992522;28;20556;-82
2021/01/20 05:25:00;;;;;;;31.60;19.07;;;;;;;-4.59;100.00;97002.25;4992776;28;20470;-82
2021/01/20 05:27:28;;;;;;;20.27;14.70;;;;;;;-4.68;100.00;97004.25;4992038;28;20204;-81
2021/01/20 05:30:01;;;;;;;10.63;9.00;;;;;;;-4.95;100.00;97004.22;4992754;28;20200;-82
2021/01/20 05:32:28;;;;;;;10.03;6.87;;;;;;;-5.07;100.00;97009.72;4992187;28;20439;-82
2021/01/20 05:35:00;;;;;;;9.37;6.80;;;;;;;-4.68;100.00;97014.50;4992699;28;20448;-82
2021/01/20 05:37:26;;;;;;;4.40;3.70;;;;;;;-5.05;100.00;97011.34;4991763;28;21010;-82
2021/01/20 05:40:08;;;;;;;5.73;3.73;;;;;;;-4.98;100.00;97006.06;4992361;28;20436;-82
2021/01/20 05:42:46;;;;;;;4.27;3.83;;;;;;;-4.66;100.00;97012.75;4992395;28;20466;-82
2021/01/20 05:45:14;;;;;;;4.33;3.27;;;;;;;-4.65;100.00;97025.50;4992256;28;20449;-81
2021/01/20 05:48:06;;;;;;;26.20;14.10;;;;;;;-4.92;100.00;97036.59;4991832;28;20443;-81
2021/01/20 05:50:33;;;;;;;18.90;11.33;;;;;;;-5.01;100.00;97045.44;4992281;28;20526;-81
2021/01/20 05:53:08;;;;;;;22.33;13.30;;;;;;;-4.86;100.00;97042.41;4991963;28;20454;-82
2021/01/20 05:55:37;;;;;;;91.53;49.23;;;;;;;-4.94;100.00;97043.53;4992242;28;21009;-82
2021/01/20 05:58:04;;;;;;;19.67;13.40;;;;;;;-4.96;100.00;97045.28;4991784;28;20959;-82
2021/01/20 06:00:33;;;;;;;7.00;5.47;;;;;;;-4.90;100.00;97035.69;4992943;28;20471;-82
2021/01/20 06:03:00;;;;;;;5.63;4.83;;;;;;;-4.78;100.00;97043.03;4995910;28;20494;-81
2021/01/20 06:05:29;;;;;;;5.50;4.10;;;;;;;-4.57;100.00;97038.13;4995872;28;20200;-81
2021/01/20 06:07:55;;;;;;;4.93;4.30;;;;;;;-4.40;100.00;97048.72;4995669;28;20513;-81
2021/01/20 06:10:24;;;;;;;10.47;6.10;;;;;;;-4.03;100.00;97047.50;4995710;28;20880;-81
2021/01/20 06:12:53;;;;;;;25.97;12.80;;;;;;;-3.92;100.00;97053.13;4995988;28;20885;-82
2021/01/20 06:15:20;;;;;;;14.57;10.73;;;;;;;-4.08;100.00;97070.78;4995691;28;20451;-82
2021/01/20 06:17:51;;;;;;;13.57;10.30;;;;;;;-4.35;100.00;97069.06;4995425;28;20879;-81
2021/01/20 06:20:23;;;;;;;52.30;24.03;;;;;;;-4.46;100.00;97074.56;4995412;28;20188;-81
2021/01/20 06:22:53;;;;;;;32.93;22.30;;;;;;;-4.87;100.00;97080.91;4995267;28;20529;-82
2021/01/20 06:25:26;;;;;;;35.73;21.17;;;;;;;-4.37;100.00;97066.53;4995493;28;20498;-82
2021/01/20 06:27:56;;;;;;;27.50;16.03;;;;;;;-4.28;100.00;97073.13;4995654;28;20814;-82
2021/01/20 06:30:28;;;;;;;19.87;12.77;;;;;;;-4.07;100.00;97080.13;4995193;28;20530;-82
2021/01/20 06:32:57;;;;;;;15.07;9.37;;;;;;;-3.94;100.00;97075.47;4995280;28;20435;-82
2021/01/20 06:35:39;;;;;;;16.30;9.83;;;;;;;-3.93;100.00;97077.13;4995254;28;20204;-82
2021/01/20 06:38:37;;;;;;;17.83;11.00;;;;;;;-3.77;100.00;97087.75;4994732;28;20713;-82
2021/01/20 06:41:10;;;;;;;18.90;10.83;;;;;;;-3.77;100.00;97087.75;4995189;28;20431;-82
2021/01/20 06:43:44;;;;;;;144.20;73.90;;;;;;;-3.80;100.00;97084.44;4995101;28;20534;-82
2021/01/20 06:46:19;;;;;;;62.60;33.13;;;;;;;-3.77;100.00;97082.59;4995008;28;20665;-82
2021/01/20 06:49:12;;;;;;;31.27;19.77;;;;;;;-3.61;100.00;97081.19;4995077;28;20184;-82
2021/01/20 06:51:43;;;;;;;23.67;15.00;;;;;;;-3.46;100.00;97084.13;4995119;28;20646;-82
2021/01/20 06:54:16;;;;;;;52.87;36.87;;;;;;;-3.70;100.00;97084.06;4994924;28;20195;-82
2021/01/20 06:56:45;;;;;;;35.80;26.03;;;;;;;-3.63;100.00;97084.72;4994763;28;20193;-82
2021/01/20 06:59:30;;;;;;;16.73;13.13;;;;;;;-3.58;100.00;97078.50;4994545;28;20715;-82
2021/01/20 07:02:13;;;;;;;16.73;11.93;;;;;;;-3.41;100.00;97085.63;4994576;28;20250;-82
2021/01/20 07:04:56;;;;;;;6.93;6.23;;;;;;;-3.45;100.00;97086.66;4994737;28;20204;-82
2021/01/20 07:07:52;;;;;;;6.80;5.90;;;;;;;-3.23;100.00;97073.88;4994574;28;20279;-82
2021/01/20 07:10:20;;;;;;;19.20;14.33;;;;;;;-3.24;100.00;97067.06;4994838;28;20274;-82
2021/01/20 07:13:18;;;;;;;29.60;21.73;;;;;;;-3.20;100.00;97068.63;4994087;28;20562;-82
2021/01/20 07:15:47;;;;;;;34.07;27.37;;;;;;;-3.07;100.00;97073.34;4994639;28;20235;-82
2021/01/20 07:18:15;;;;;;;28.13;18.83;;;;;;;-3.05;100.00;97068.97;4994108;28;20192;-83
2021/01/20 07:20:44;;;;;;;29.43;18.13;;;;;;;-2.95;100.00;97068.56;4994473;28;20204;-83
2021/01/20 07:23:11;;;;;;;43.83;27.80;;;;;;;-2.54;100.00;97078.22;4994164;28;20263;-82
2021/01/20 07:25:38;;;;;;;20.30;13.83;;;;;;;-2.33;100.00;97066.25;4994619;28;20239;-83
2021/01/20 07:28:05;;;;;;;19.63;14.17;;;;;;;-2.41;100.00;97071.69;4994049;28;20295;-82
2021/01/20 07:30:33;;;;;;;36.27;26.07;;;;;;;-2.15;100.00;97073.22;4994213;28;20208;-83
2021/01/20 07:33:00;;;;;;;26.97;18.63;;;;;;;-2.17;100.00;97073.31;4994098;28;20235;-83
2021/01/20 07:35:29;;;;;;;25.87;17.10;;;;;;;-2.16;100.00;97069.81;4994244;28;20207;-83
2021/01/20 07:38:04;;;;;;;14.70;9.50;;;;;;;-2.31;100.00;97083.31;4993780;28;20749;-83
2021/01/20 07:40:32;;;;;;;9.23;7.73;;;;;;;-2.56;100.00;97095.44;4994325;28;20286;-83
2021/01/20 07:42:59;;;;;;;12.57;10.57;;;;;;;-2.40;100.00;97091.38;4993810;28;20224;-83
2021/01/20 07:45:34;;;;;;;18.57;15.47;;;;;;;-2.14;100.00;97102.44;4993896;28;20200;-83
2021/01/20 07:48:02;;;;;;;22.90;15.67;;;;;;;-1.98;100.00;97088.84;4993745;28;20243;-83
2021/01/20 07:50:43;;;;;;;21.80;15.73;;;;;;;-1.60;100.00;97099.31;4993688;28;20231;-83
2021/01/20 07:53:13;;;;;;;20.57;15.17;;;;;;;-1.96;100.00;97097.38;4993735;28;20181;-83
2021/01/20 07:55:39;;;;;;;21.67;15.00;;;;;;;-2.01;100.00;97104.44;4994090;28;20306;-82
2021/01/20 07:58:06;;;;;;;17.63;13.43;;;;;;;-1.64;100.00;97102.09;4993859;28;20223;-82
2021/01/20 08:00:43;;;;;;;14.27;9.40;;;;;;;-1.49;100.00;97096.31;4993525;28;20200;-83
2021/01/20 08:03:11;;;;;;;13.67;10.00;;;;;;;-1.42;100.00;97107.19;4993381;28;20672;-83
2021/01/20 08:05:38;;;;;;;14.13;9.83;;;;;;;-1.55;100.00;97115.47;4993645;28;20197;-82
2021/01/20 08:08:14;;;;;;;11.60;8.83;;;;;;;-1.70;100.00;97106.63;4993331;28;20235;-81
2021/01/20 08:10:42;;;;;;;13.23;9.93;;;;;;;-1.37;100.00;97095.78;4993906;28;20251;-82
2021/01/20 08:13:14;;;;;;;17.63;11.03;;;;;;;-0.95;100.00;97092.25;4993073;28;20197;-82
2021/01/20 08:15:43;;;;;;;20.03;12.17;;;;;;;-1.00;100.00;97112.28;4993484;28;20744;-82
2021/01/20 08:18:13;;;;;;;17.50;12.37;;;;;;;-0.97;100.00;97109.53;4993191;28;20303;-80
2021/01/20 08:20:41;;;;;;;16.57;11.93;;;;;;;-0.88;100.00;97103.16;4993943;28;20203;-80
2021/01/20 08:23:28;;;;;;;21.83;13.50;;;;;;;-0.85;100.00;97109.00;4992762;28;20251;-80
2021/01/20 08:26:05;;;;;;;20.67;12.97;;;;;;;-0.73;100.00;97111.06;4992851;28;20185;-80
2021/01/20 08:28:32;;;;;;;24.97;16.23;;;;;;;-0.72;100.00;97115.31;4993204;28;20185;-80
2021/01/20 08:30:59;;;;;;;24.43;15.47;;;;;;;-0.49;100.00;97108.25;4992844;28;20196;-80
2021/01/20 08:33:27;;;;;;;28.43;16.23;;;;;;;-0.58;100.00;97119.84;4993049;28;20193;-83
2021/01/20 08:35:58;;;;;;;28.97;17.37;;;;;;;-0.37;100.00;97118.03;4993044;28;20198;-83
2021/01/20 08:38:29;;;;;;;24.43;11.40;;;;;;;-0.24;100.00;97115.72;4992806;28;20241;-83
2021/01/20 08:41:12;;;;;;;15.13;9.03;;;;;;;-0.16;100.00;97121.38;4992782;28;20203;-83
2021/01/20 08:43:39;;;;;;;14.60;9.20;;;;;;;-0.10;100.00;97128.84;4990539;28;20263;-83
2021/01/20 08:46:25;;;;;;;12.47;7.17;;;;;;;0.14;100.00;97126.84;4992871;28;20204;-82
2021/01/20 08:48:56;;;;;;;12.73;9.00;;;;;;;0.16;100.00;97119.81;4993115;28;20677;-83
2021/01/20 08:51:23;;;;;;;13.80;8.10;;;;;;;0.47;100.00;97111.41;4992716;28;20208;-83
2021/01/20 08:53:51;;;;;;;12.50;10.17;;;;;;;0.75;100.00;97110.03;4992864;28;20204;-83
2021/01/20 08:56:28;;;;;;;7.53;4.63;;;;;;;0.99;100.00;97105.34;4992939;28;20227;-82
2021/01/20 08:58:55;;;;;;;7.57;3.67;;;;;;;1.38;100.00;97101.59;4992649;28;20588;-83
2021/01/20 09:01:27;;;;;;;4.13;3.43;;;;;;;1.45;100.00;97097.75;4992356;28;20251;-83
2021/01/20 09:03:58;;;;;;;22.80;10.77;;;;;;;1.84;100.00;97083.56;4992631;28;20723;-83
2021/01/20 09:06:26;;;;;;;17.37;8.90;;;;;;;1.71;100.00;97082.56;4992813;28;20282;-82
2021/01/20 09:08:54;;;;;;;12.80;6.50;;;;;;;1.72;100.00;97076.44;4992610;28;20688;-83
2021/01/20 09:11:23;;;;;;;9.97;4.97;;;;;;;2.16;100.00;97075.75;4992094;28;20204;-83
2021/01/20 09:13:50;;;;;;;5.90;3.37;;;;;;;2.42;100.00;97063.84;4992546;28;20231;-83
2021/01/20 09:16:24;;;;;;;3.87;3.03;;;;;;;2.44;100.00;97070.63;4992275;28;20680;-84
2021/01/20 09:18:52;;;;;;;7.23;3.27;;;;;;;2.58;100.00;97054.25;4992581;28;20195;-84
2021/01/20 09:21:19;;;;;;;5.67;3.57;;;;;;;3.00;100.00;97056.06;4992090;28;20591;-83
2021/01/20 09:23:46;;;;;;;3.77;2.83;;;;;;;3.23;100.00;97052.06;4992339;28;20697;-84
2021/01/20 09:26:14;;;;;;;7.30;3.47;;;;;;;4.07;100.00;97048.50;4992394;28;20207;-83
2021/01/20 09:28:41;;;;;;;4.10;3.50;;;;;;;4.20;100.00;97044.19;4992432;28;20290;-84
2021/01/20 09:31:08;;;;;;;3.77;3.47;;;;;;;4.51;100.00;97044.78;4992323;28;20562;-84
2021/01/20 09:33:35;;;;;;;6.93;3.60;;;;;;;4.63;100.00;97043.94;4992107;28;20743;-84
2021/01/20 09:36:02;;;;;;;4.60;3.17;;;;;;;4.24;100.00;97042.22;4994301;28;20255;-84
2021/01/20 09:38:29;;;;;;;10.27;5.33;;;;;;;3.66;100.00;97041.59;4996026;28;20671;-84
2021/01/20 09:40:56;;;;;;;5.03;3.40;;;;;;;3.68;100.00;97037.13;4996301;28;20208;-85
2021/01/20 09:43:24;;;;;;;17.27;9.10;;;;;;;3.53;100.00;97033.75;4995917;28;20227;-84
2021/01/20 09:45:51;;;;;;;7.50;4.20;;;;;;;3.26;100.00;97038.06;4996149;28;20200;-84
2021/01/20 09:48:18;;;;;;;9.80;4.60;;;;;;;3.53;100.00;97023.34;4996098;28;20200;-84
2021/01/20 09:50:45;;;;;;;7.60;4.07;;;;;;;3.60;100.00;97023.78;4996148;28;20222;-84
2021/01/20 09:53:12;;;;;;;4.93;3.30;;;;;;;3.58;100.00;97031.69;4995870;28;20204;-84
2021/01/20 09:55:39;;;;;;;4.00;3.60;;;;;;;3.60;100.00;97041.13;4995639;28;20287;-84
2021/01/20 09:58:06;;;;;;;14.50;9.93;;;;;;;3.14;100.00;97031.00;4995790;28;20200;-84
2021/01/20 10:00:35;;;;;;;21.57;15.20;;;;;;;2.71;100.00;97029.25;4995951;28;20590;-82
2021/01/20 10:03:06;;;;;;;24.63;17.47;;;;;;;2.65;100.00;97019.22;4995439;28;20223;-82
2021/01/20 10:05:33;;;;;;;23.63;15.33;;;;;;;2.75;100.00;97019.53;4996189;28;20189;-82
2021/01/20 10:08:00;;;;;;;4.27;3.33;;;;;;;2.87;100.00;97023.97;4995626;28;20231;-82
2021/01/20 10:10:27;;;;;;;3.63;3.27;;;;;;;2.79;100.00;97021.84;4995825;28;20759;-82
2021/01/20 10:12:54;;;;;;;3.17;2.87;;;;;;;2.87;100.00;97026.56;4995863;28;20731;-82
2021/01/20 10:15:22;;;;;;;4.63;2.57;;;;;;;2.80;100.00;97028.69;4995735;28;20583;-82
2021/01/20 10:17:52;;;;;;;3.33;2.43;;;;;;;2.94;100.00;97020.06;4995524;28;20243;-82
2021/01/20 10:20:19;;;;;;;3.13;2.80;;;;;;;3.01;100.00;97025.72;4995650;28;20240;-82
2021/01/20 10:22:46;;;;;;;3.37;2.60;;;;;;;3.10;100.00;97018.22;4995380;28;20220;-82
2021/01/20 10:25:14;;;;;;;4.40;3.53;;;;;;;3.04;100.00;97010.78;4995272;28;20235;-82
2021/01/20 10:27:40;;;;;;;3.57;3.27;;;;;;;3.27;100.00;97011.16;4995671;28;20641;-82
2021/01/20 10:30:08;;;;;;;5.30;3.67;;;;;;;3.71;100.00;97007.53;4995733;28;20196;-82
2021/01/20 10:32:35;;;;;;;6.30;3.87;;;;;;;3.92;100.00;97016.53;4994989;28;20211;-82
2021/01/20 10:35:08;;;;;;;5.20;3.50;;;;;;;3.68;100.00;97010.31;4995286;28;20211;-81
2021/01/20 10:37:35;;;;;;;5.17;3.77;;;;;;;3.39;100.00;97010.38;4994977;28;20267;-82
2021/01/20 10:40:02;;;;;;;3.17;2.87;;;;;;;3.77;100.00;96994.09;4995254;28;20204;-82
2021/01/20 10:42:29;;;;;;;8.23;4.93;;;;;;;3.93;100.00;96988.75;4994839;28;20705;-82
2021/01/20 10:44:55;;;;;;;18.30;14.07;;;;;;;3.85;100.00;96980.63;4995084;28;20208;-82
2021/01/20 10:47:22;;;;;;;12.07;9.97;;;;;;;3.93;100.00;96983.56;4993944;28;20748;-82
2021/01/20 10:49:49;;;;;;;13.13;10.27;;;;;;;5.16;100.00;96970.84;4995287;28;20284;-82
2021/01/20 10:52:17;;;;;;;10.57;7.97;;;;;;;6.37;100.00;96975.13;4994640;28;20207;-82
2021/01/20 10:54:44;;;;;;;19.97;15.00;;;;;;;5.92;100.00;96969.72;4994906;28;20283;-82
2021/01/20 10:57:11;;;;;;;11.53;9.10;;;;;;;5.82;100.00;96969.59;4995033;28;20251;-83
2021/01/20 10:59:41;;;;;;;12.60;7.50;;;;;;;6.00;100.00;96961.41;4995284;28;20291;-82
2021/01/20 11:02:08;;;;;;;21.07;14.80;;;;;;;5.80;100.00;96960.22;4994469;28;20673;-83
2021/01/20 11:04:35;;;;;;;22.93;14.63;;;;;;;5.71;100.00;96951.28;4994872;28;20291;-83
2021/01/20 11:07:02;;;;;;;23.73;14.50;;;;;;;5.51;100.00;96962.31;4994666;28;20591;-83
2021/01/20 11:09:30;;;;;;;21.03;15.63;;;;;;;5.62;100.00;96957.16;4994987;28;20642;-83
2021/01/20 11:11:58;;;;;;;20.83;14.27;;;;;;;5.39;100.00;96970.06;4994571;28;20200;-83
2021/01/20 11:14:25;;;;;;;24.40;15.80;;;;;;;4.97;100.00;96966.13;4994843;28;20197;-83
2021/01/20 11:16:52;;;;;;;20.83;15.03;;;;;;;4.51;100.00;96961.47;4994443;28;20207;-83
2021/01/20 11:19:19;;;;;;;17.53;11.80;;;;;;;4.14;100.00;96955.28;4994780;28;20579;-83
2021/01/20 11:21:46;;;;;;;14.00;10.83;;;;;;;4.41;100.00;96948.25;4994331;28;20235;-82
2021/01/20 11:24:17;;;;;;;13.77;10.93;;;;;;;4.51;100.00;96949.28;4994464;28;20196;-82
2021/01/20 11:26:46;;;;;;;14.23;11.03;;;;;;;4.25;100.00;96945.81;4994363;28;20185;-83
2021/01/20 11:29:13;;;;;;;14.50;12.47;;;;;;;4.18;100.00;96952.38;4994698;28;20192;-83
2021/01/20 11:31:39;;;;;;;15.93;10.37;;;;;;;4.15;100.00;96943.94;4994247;28;20209;-83
2021/01/20 11:34:06;;;;;;;13.97;10.80;;;;;;;4.02;100.00;96951.75;4994288;28;20192;-83
2021/01/20 11:36:33;;;;;;;13.70;10.77;;;;;;;4.25;100.00;96950.19;4994054;28;20196;-83